sensor_id;sensor_type;location;lat;lon;timestamp;P1;durP1;ratioP1;P2;durP2;ratioP2
13240;SDS011;6687;47.790;7.322;2023-04-21T05:25:01;0.90;;;0.90;;
13240;SDS011;6687;47.790;7.322;2023-04-21T05:27:28;1.00;;;0.68;;
13240;SDS011;6687;47.790;7.322;2023-04-21T05:29:55;1.35;;;1.00;;
13240;SDS011;6687;47.790;7.322;2023-04-21T05:32:22;0.80;;;0.77;;
13240;SDS011;6687;47.790;7.322;2023-04-21T05:34:48;1.02;;;0.93;;
13240;SDS011;6687;47.790;7.322;2023-04-21T05:37:15;0.50;;;0.50;;
13240;SDS011;6687;47.790;7.322;2023-04-21T05:39:42;0.50;;;0.50;;
13240;SDS011;6687;47.790;7.322;2023-04-21T05:42:10;0.68;;;0.68;;
13240;SDS011;6687;47.790;7.322;2023-04-21T05:44:37;1.35;;;1.08;;
13240;SDS011;6687;47.790;7.322;2023-04-21T05:47:04;0.57;;;0.57;;
13240;SDS011;6687;47.790;7.322;2023-04-21T05:49:31;2.63;;;0.90;;
13240;SDS011;6687;47.790;7.322;2023-04-21T05:51:58;0.80;;;0.80;;
13240;SDS011;6687;47.790;7.322;2023-04-21T05:54:25;0.80;;;0.80;;
13240;SDS011;6687;47.790;7.322;2023-04-21T05:56:52;1.70;;;1.60;;
13240;SDS011;6687;47.790;7.322;2023-04-21T05:59:20;1.38;;;1.27;;
13240;SDS011;6687;47.790;7.322;2023-04-21T06:01:46;1.15;;;1.10;;
13240;SDS011;6687;47.790;7.322;2023-04-21T06:04:13;0.80;;;0.80;;
13240;SDS011;6687;47.790;7.322;2023-04-21T06:06:40;1.27;;;1.10;;
13240;SDS011;6687;47.790;7.322;2023-04-21T06:09:08;2.22;;;1.25;;
13240;SDS011;6687;47.790;7.322;2023-04-21T06:11:35;1.13;;;1.05;;
13240;SDS011;6687;47.790;7.322;2023-04-21T06:14:02;1.83;;;1.73;;
13240;SDS011;6687;47.790;7.322;2023-04-21T06:16:30;1.23;;;1.13;;
13240;SDS011;6687;47.790;7.322;2023-04-21T06:18:58;1.70;;;1.60;;
13240;SDS011;6687;47.790;7.322;2023-04-21T06:21:25;0.82;;;0.82;;
13240;SDS011;6687;47.790;7.322;2023-04-21T06:23:51;2.53;;;1.60;;
13240;SDS011;6687;47.790;7.322;2023-04-21T06:26:18;2.63;;;1.45;;
13240;SDS011;6687;47.790;7.322;2023-04-21T06:28:45;2.38;;;1.20;;
13240;SDS011;6687;47.790;7.322;2023-04-21T06:31:11;2.05;;;1.45;;
13240;SDS011;6687;47.790;7.322;2023-04-21T06:33:40;1.63;;;1.50;;
13240;SDS011;6687;47.790;7.322;2023-04-21T06:36:07;1.75;;;0.93;;
13240;SDS011;6687;47.790;7.322;2023-04-21T06:38:34;1.67;;;1.35;;
13240;SDS011;6687;47.790;7.322;2023-04-21T06:41:01;1.23;;;0.90;;
13240;SDS011;6687;47.790;7.322;2023-04-21T06:43:28;0.90;;;0.90;;
13240;SDS011;6687;47.790;7.322;2023-04-21T06:45:55;1.67;;;1.23;;
13240;SDS011;6687;47.790;7.322;2023-04-21T06:48:22;2.03;;;1.35;;
13240;SDS011;6687;47.790;7.322;2023-04-21T06:50:50;1.17;;;1.08;;
13240;SDS011;6687;47.790;7.322;2023-04-21T06:53:17;1.67;;;1.58;;
13240;SDS011;6687;47.790;7.322;2023-04-21T06:55:45;1.60;;;1.50;;
13240;SDS011;6687;47.790;7.322;2023-04-21T06:58:12;2.08;;;1.88;;
13240;SDS011;6687;47.790;7.322;2023-04-21T07:00:39;1.05;;;0.95;;
13240;SDS011;6687;47.790;7.322;2023-04-21T07:03:06;1.75;;;1.52;;
13240;SDS011;6687;47.790;7.322;2023-04-21T07:05:33;2.53;;;2.33;;
13240;SDS011;6687;47.790;7.322;2023-04-21T07:08:01;2.22;;;2.03;;
13240;SDS011;6687;47.790;7.322;2023-04-21T07:10:28;0.77;;;0.77;;
13240;SDS011;6687;47.790;7.322;2023-04-21T07:12:55;2.03;;;1.80;;
13240;SDS011;6687;47.790;7.322;2023-04-21T07:15:22;3.15;;;2.00;;
13240;SDS011;6687;47.790;7.322;2023-04-21T07:17:48;2.72;;;2.47;;
13240;SDS011;6687;47.790;7.322;2023-04-21T07:20:15;5.35;;;2.80;;
13240;SDS011;6687;47.790;7.322;2023-04-21T07:22:42;3.13;;;2.78;;
13240;SDS011;6687;47.790;7.322;2023-04-21T07:25:11;3.08;;;2.35;;
13240;SDS011;6687;47.790;7.322;2023-04-21T07:27:37;1.58;;;1.05;;
13240;SDS011;6687;47.790;7.322;2023-04-21T07:30:05;0.95;;;0.95;;
13240;SDS011;6687;47.790;7.322;2023-04-21T07:32:32;3.40;;;2.65;;
13240;SDS011;6687;47.790;7.322;2023-04-21T07:35:00;4.07;;;2.22;;
13240;SDS011;6687;47.790;7.322;2023-04-21T07:37:27;7.53;;;3.47;;
13240;SDS011;6687;47.790;7.322;2023-04-21T07:39:54;0.88;;;0.88;;
13240;SDS011;6687;47.790;7.322;2023-04-21T07:42:22;3.28;;;2.08;;
13240;SDS011;6687;47.790;7.322;2023-04-21T07:44:50;4.03;;;2.60;;
13240;SDS011;6687;47.790;7.322;2023-04-21T07:47:18;1.63;;;1.52;;
13240;SDS011;6687;47.790;7.322;2023-04-21T07:49:45;0.98;;;0.98;;
13240;SDS011;6687;47.790;7.322;2023-04-21T07:52:12;1.35;;;0.93;;
13240;SDS011;6687;47.790;7.322;2023-04-21T07:54:39;2.45;;;2.25;;
13240;SDS011;6687;47.790;7.322;2023-04-21T07:57:06;1.88;;;1.45;;
13240;SDS011;6687;47.790;7.322;2023-04-21T07:59:34;2.38;;;1.50;;
13240;SDS011;6687;47.790;7.322;2023-04-21T08:02:00;1.83;;;1.45;;
13240;SDS011;6687;47.790;7.322;2023-04-21T08:04:27;0.88;;;0.88;;
13240;SDS011;6687;47.790;7.322;2023-04-21T08:06:54;1.55;;;1.05;;
13240;SDS011;6687;47.790;7.322;2023-04-21T08:09:20;1.33;;;1.05;;
13240;SDS011;6687;47.790;7.322;2023-04-21T08:11:47;1.55;;;1.45;;
13240;SDS011;6687;47.790;7.322;2023-04-21T08:14:14;2.65;;;1.75;;
13240;SDS011;6687;47.790;7.322;2023-04-21T08:16:42;1.63;;;1.17;;
13240;SDS011;6687;47.790;7.322;2023-04-21T08:19:09;1.17;;;0.75;;
13240;SDS011;6687;47.790;7.322;2023-04-21T08:21:36;2.58;;;1.52;;
13240;SDS011;6687;47.790;7.322;2023-04-21T08:24:02;2.28;;;1.95;;
13240;SDS011;6687;47.790;7.322;2023-04-21T08:26:30;2.22;;;2.08;;
13240;SDS011;6687;47.790;7.322;2023-04-21T08:28:57;1.30;;;1.10;;
13240;SDS011;6687;47.790;7.322;2023-04-21T08:31:25;0.60;;;0.60;;
13240;SDS011;6687;47.790;7.322;2023-04-21T08:33:53;1.40;;;1.30;;
13240;SDS011;6687;47.790;7.322;2023-04-21T08:36:20;1.30;;;1.20;;
13240;SDS011;6687;47.790;7.322;2023-04-21T08:38:47;1.80;;;0.98;;
13240;SDS011;6687;47.790;7.322;2023-04-21T08:41:13;1.80;;;1.42;;
13240;SDS011;6687;47.790;7.322;2023-04-21T08:43:40;1.80;;;1.52;;
13240;SDS011;6687;47.790;7.322;2023-04-21T08:46:07;2.83;;;2.00;;
13240;SDS011;6687;47.790;7.322;2023-04-21T08:48:34;5.10;;;2.45;;
13240;SDS011;6687;47.790;7.322;2023-04-21T08:51:04;2.63;;;1.98;;
13240;SDS011;6687;47.790;7.322;2023-04-21T08:53:33;2.60;;;1.88;;
13240;SDS011;6687;47.790;7.322;2023-04-21T08:56:00;1.77;;;1.30;;
13240;SDS011;6687;47.790;7.322;2023-04-21T08:58:27;1.98;;;1.77;;
13240;SDS011;6687;47.790;7.322;2023-04-21T09:00:54;1.38;;;1.20;;
13240;SDS011;6687;47.790;7.322;2023-04-21T09:03:22;1.10;;;1.00;;
13240;SDS011;6687;47.790;7.322;2023-04-21T09:05:55;1.33;;;0.95;;
13240;SDS011;6687;47.790;7.322;2023-04-21T09:08:25;1.20;;;1.02;;
13240;SDS011;6687;47.790;7.322;2023-04-21T09:10:53;1.25;;;1.15;;
13240;SDS011;6687;47.790;7.322;2023-04-21T09:13:30;1.00;;;1.00;;
13240;SDS011;6687;47.790;7.322;2023-04-21T09:15:58;1.08;;;1.05;;
13240;SDS011;6687;47.790;7.322;2023-04-21T09:18:29;1.17;;;1.08;;
13240;SDS011;6687;47.790;7.322;2023-04-21T09:21:06;0.95;;;0.93;;
13240;SDS011;6687;47.790;7.322;2023-04-21T09:23:39;0.88;;;0.88;;
13240;SDS011;6687;47.790;7.322;2023-04-21T09:26:07;0.93;;;0.73;;
13240;SDS011;6687;47.790;7.322;2023-04-21T09:28:35;1.02;;;0.93;;
13240;SDS011;6687;47.790;7.322;2023-04-21T09:31:01;0.80;;;0.80;;
13240;SDS011;6687;47.790;7.322;2023-04-21T09:33:31;0.73;;;0.73;;
13240;SDS011;6687;47.790;7.322;2023-04-21T09:35:59;1.48;;;0.80;;
13240;SDS011;6687;47.790;7.322;2023-04-21T09:38:27;1.08;;;0.98;;
13240;SDS011;6687;47.790;7.322;2023-04-21T09:40:58;0.77;;;0.73;;
13240;SDS011;6687;47.790;7.322;2023-04-21T09:43:25;1.00;;;0.90;;
13240;SDS011;6687;47.790;7.322;2023-04-21T09:45:52;1.73;;;1.58;;
13240;SDS011;6687;47.790;7.322;2023-04-21T09:48:20;1.33;;;0.95;;
13240;SDS011;6687;47.790;7.322;2023-04-21T09:50:50;0.80;;;0.80;;
13240;SDS011;6687;47.790;7.322;2023-04-21T09:53:19;0.82;;;0.80;;
13240;SDS011;6687;47.790;7.322;2023-04-21T09:55:49;0.93;;;0.85;;
13240;SDS011;6687;47.790;7.322;2023-04-21T09:58:19;0.75;;;0.70;;
13240;SDS011;6687;47.790;7.322;2023-04-21T10:00:49;0.50;;;0.50;;
13240;SDS011;6687;47.790;7.322;2023-04-21T10:03:17;1.08;;;0.90;;
13240;SDS011;6687;47.790;7.322;2023-04-21T10:05:46;1.05;;;0.93;;
13240;SDS011;6687;47.790;7.322;2023-04-21T10:08:13;1.30;;;1.20;;
13240;SDS011;6687;47.790;7.322;2023-04-21T10:10:42;0.70;;;0.70;;
13240;SDS011;6687;47.790;7.322;2023-04-21T10:13:11;0.70;;;0.70;;
13240;SDS011;6687;47.790;7.322;2023-04-21T10:15:42;0.70;;;0.70;;
13240;SDS011;6687;47.790;7.322;2023-04-21T10:18:12;0.63;;;0.63;;
13240;SDS011;6687;47.790;7.322;2023-04-21T10:20:55;0.75;;;0.75;;
13240;SDS011;6687;47.790;7.322;2023-04-21T10:23:26;1.23;;;0.77;;
13240;SDS011;6687;47.790;7.322;2023-04-21T10:26:00;0.73;;;0.52;;
13240;SDS011;6687;47.790;7.322;2023-04-21T10:28:47;0.73;;;0.73;;
13240;SDS011;6687;47.790;7.322;2023-04-21T10:31:28;0.60;;;0.60;;
13240;SDS011;6687;47.790;7.322;2023-04-21T10:34:12;0.52;;;0.52;;
13240;SDS011;6687;47.790;7.322;2023-04-21T10:39:41;0.88;;;0.52;;
13240;SDS011;6687;47.790;7.322;2023-04-21T10:42:23;0.63;;;0.57;;
13240;SDS011;6687;47.790;7.322;2023-04-21T10:44:52;0.88;;;0.68;;
13240;SDS011;6687;47.790;7.322;2023-04-21T10:47:29;0.55;;;0.55;;
13240;SDS011;6687;47.790;7.322;2023-04-21T10:50:09;0.63;;;0.60;;
13240;SDS011;6687;47.790;7.322;2023-04-21T10:52:50;0.70;;;0.63;;
13240;SDS011;6687;47.790;7.322;2023-04-21T10:55:19;0.60;;;0.60;;
13240;SDS011;6687;47.790;7.322;2023-04-21T10:57:46;0.68;;;0.68;;
13240;SDS011;6687;47.790;7.322;2023-04-21T11:00:14;2.67;;;0.80;;
13240;SDS011;6687;47.790;7.322;2023-04-21T11:02:44;1.25;;;0.80;;
13240;SDS011;6687;47.790;7.322;2023-04-21T11:05:18;0.80;;;0.80;;
13240;SDS011;6687;47.790;7.322;2023-04-21T11:07:46;1.05;;;0.75;;
13240;SDS011;6687;47.790;7.322;2023-04-21T11:10:12;0.75;;;0.75;;
13240;SDS011;6687;47.790;7.322;2023-04-21T11:12:39;0.95;;;0.75;;
13240;SDS011;6687;47.790;7.322;2023-04-21T11:15:07;0.88;;;0.82;;
13240;SDS011;6687;47.790;7.322;2023-04-21T11:17:36;0.43;;;0.43;;
13240;SDS011;6687;47.790;7.322;2023-04-21T11:20:05;1.02;;;0.73;;
13240;SDS011;6687;47.790;7.322;2023-04-21T11:22:34;0.85;;;0.73;;
13240;SDS011;6687;47.790;7.322;2023-04-21T11:25:02;0.68;;;0.68;;
13240;SDS011;6687;47.790;7.322;2023-04-21T11:27:29;1.35;;;1.25;;
13240;SDS011;6687;47.790;7.322;2023-04-21T11:29:56;1.45;;;1.02;;
13240;SDS011;6687;47.790;7.322;2023-04-21T11:32:23;0.93;;;0.73;;
13240;SDS011;6687;47.790;7.322;2023-04-21T11:34:50;0.43;;;0.43;;
13240;SDS011;6687;47.790;7.322;2023-04-21T11:37:21;1.23;;;0.82;;
13240;SDS011;6687;47.790;7.322;2023-04-21T11:39:55;0.70;;;0.70;;
13240;SDS011;6687;47.790;7.322;2023-04-21T11:42:22;0.60;;;0.60;;
13240;SDS011;6687;47.790;7.322;2023-04-21T11:44:49;0.98;;;0.98;;
13240;SDS011;6687;47.790;7.322;2023-04-21T11:47:16;1.10;;;1.00;;
13240;SDS011;6687;47.790;7.322;2023-04-21T11:49:45;1.55;;;1.08;;
13240;SDS011;6687;47.790;7.322;2023-04-21T11:52:21;1.45;;;0.73;;
13240;SDS011;6687;47.790;7.322;2023-04-21T11:54:52;0.60;;;0.60;;
13240;SDS011;6687;47.790;7.322;2023-04-21T11:57:21;0.73;;;0.73;;
13240;SDS011;6687;47.790;7.322;2023-04-21T11:59:48;0.40;;;0.40;;
13240;SDS011;6687;47.790;7.322;2023-04-21T12:02:19;0.75;;;0.50;;
13240;SDS011;6687;47.790;7.322;2023-04-21T12:04:55;0.50;;;0.50;;
13240;SDS011;6687;47.790;7.322;2023-04-21T12:07:24;0.50;;;0.50;;
13240;SDS011;6687;47.790;7.322;2023-04-21T12:09:51;1.08;;;0.43;;
13240;SDS011;6687;47.790;7.322;2023-04-21T12:12:18;1.38;;;0.93;;
13240;SDS011;6687;47.790;7.322;2023-04-21T12:14:44;0.30;;;0.30;;
13240;SDS011;6687;47.790;7.322;2023-04-21T12:17:11;0.77;;;0.60;;
13240;SDS011;6687;47.790;7.322;2023-04-21T12:19:39;0.50;;;0.50;;
13240;SDS011;6687;47.790;7.322;2023-04-21T12:22:07;0.45;;;0.40;;
13240;SDS011;6687;47.790;7.322;2023-04-21T12:24:36;0.30;;;0.30;;
13240;SDS011;6687;47.790;7.322;2023-04-21T12:27:03;0.52;;;0.52;;
13240;SDS011;6687;47.790;7.322;2023-04-21T12:29:30;0.85;;;0.47;;
13240;SDS011;6687;47.790;7.322;2023-04-21T12:31:59;0.80;;;0.60;;
13240;SDS011;6687;47.790;7.322;2023-04-21T12:34:25;1.13;;;0.75;;
13240;SDS011;6687;47.790;7.322;2023-04-21T12:36:52;0.80;;;0.68;;
13240;SDS011;6687;47.790;7.322;2023-04-21T12:39:19;1.20;;;0.50;;
13240;SDS011;6687;47.790;7.322;2023-04-21T12:41:47;0.30;;;0.30;;
13240;SDS011;6687;47.790;7.322;2023-04-21T12:44:14;0.28;;;0.28;;
13240;SDS011;6687;47.790;7.322;2023-04-21T12:46:41;0.52;;;0.50;;
13240;SDS011;6687;47.790;7.322;2023-04-21T12:49:07;0.10;;;0.10;;
13240;SDS011;6687;47.790;7.322;2023-04-21T12:51:35;1.33;;;0.55;;
13240;SDS011;6687;47.790;7.322;2023-04-21T12:54:02;0.50;;;0.50;;
13240;SDS011;6687;47.790;7.322;2023-04-21T12:56:28;0.40;;;0.40;;
13240;SDS011;6687;47.790;7.322;2023-04-21T12:58:57;0.50;;;0.47;;
13240;SDS011;6687;47.790;7.322;2023-04-21T13:01:24;0.40;;;0.40;;
13240;SDS011;6687;47.790;7.322;2023-04-21T13:03:50;0.30;;;0.30;;
13240;SDS011;6687;47.790;7.322;2023-04-21T13:06:17;0.55;;;0.55;;
13240;SDS011;6687;47.790;7.322;2023-04-21T13:08:44;0.30;;;0.30;;
13240;SDS011;6687;47.790;7.322;2023-04-21T13:11:11;0.43;;;0.43;;
13240;SDS011;6687;47.790;7.322;2023-04-21T13:13:38;0.52;;;0.40;;
13240;SDS011;6687;47.790;7.322;2023-04-21T13:16:06;0.30;;;0.30;;
13240;SDS011;6687;47.790;7.322;2023-04-21T13:18:33;0.22;;;0.22;;
13240;SDS011;6687;47.790;7.322;2023-04-21T13:21:00;0.40;;;0.40;;
13240;SDS011;6687;47.790;7.322;2023-04-21T13:23:27;0.57;;;0.40;;
13240;SDS011;6687;47.790;7.322;2023-04-21T13:25:53;0.30;;;0.30;;
13240;SDS011;6687;47.790;7.322;2023-04-21T13:28:20;0.40;;;0.40;;
13240;SDS011;6687;47.790;7.322;2023-04-21T13:30:47;1.30;;;0.60;;
13240;SDS011;6687;47.790;7.322;2023-04-21T13:33:19;0.20;;;0.20;;
13240;SDS011;6687;47.790;7.322;2023-04-21T13:35:46;0.43;;;0.43;;
13240;SDS011;6687;47.790;7.322;2023-04-21T13:38:13;0.73;;;0.73;;
13240;SDS011;6687;47.790;7.322;2023-04-21T13:40:39;0.40;;;0.40;;
13240;SDS011;6687;47.790;7.322;2023-04-21T13:43:06;1.17;;;0.70;;
13240;SDS011;6687;47.790;7.322;2023-04-21T13:45:33;1.20;;;0.77;;
13240;SDS011;6687;47.790;7.322;2023-04-21T13:48:00;1.02;;;0.93;;
13240;SDS011;6687;47.790;7.322;2023-04-21T13:50:28;0.55;;;0.55;;
13240;SDS011;6687;47.790;7.322;2023-04-21T13:52:54;0.75;;;0.68;;
13240;SDS011;6687;47.790;7.322;2023-04-21T13:55:21;0.80;;;0.60;;
13240;SDS011;6687;47.790;7.322;2023-04-21T13:57:48;0.40;;;0.40;;
13240;SDS011;6687;47.790;7.322;2023-04-21T14:00:15;0.85;;;0.85;;
13240;SDS011;6687;47.790;7.322;2023-04-21T14:02:42;0.55;;;0.55;;
13240;SDS011;6687;47.790;7.322;2023-04-21T14:05:09;0.57;;;0.57;;
13240;SDS011;6687;47.790;7.322;2023-04-21T14:07:38;0.90;;;0.65;;
13240;SDS011;6687;47.790;7.322;2023-04-21T14:10:05;1.98;;;1.02;;
13240;SDS011;6687;47.790;7.322;2023-04-21T14:12:33;1.27;;;0.70;;
13240;SDS011;6687;47.790;7.322;2023-04-21T14:14:59;0.95;;;0.88;;
13240;SDS011;6687;47.790;7.322;2023-04-21T14:17:26;0.70;;;0.68;;
13240;SDS011;6687;47.790;7.322;2023-04-21T14:19:53;1.10;;;1.00;;
13240;SDS011;6687;47.790;7.322;2023-04-21T14:22:19;1.20;;;1.08;;
13240;SDS011;6687;47.790;7.322;2023-04-21T14:24:47;1.13;;;1.13;;
13240;SDS011;6687;47.790;7.322;2023-04-21T14:27:14;1.27;;;1.17;;
13240;SDS011;6687;47.790;7.322;2023-04-21T14:29:41;0.50;;;0.50;;
13240;SDS011;6687;47.790;7.322;2023-04-21T14:32:08;0.73;;;0.45;;
13240;SDS011;6687;47.790;7.322;2023-04-21T14:34:34;0.77;;;0.73;;
13240;SDS011;6687;47.790;7.322;2023-04-21T14:37:01;1.65;;;1.55;;
13240;SDS011;6687;47.790;7.322;2023-04-21T14:39:28;2.20;;;1.25;;
13240;SDS011;6687;47.790;7.322;2023-04-21T14:41:57;0.70;;;0.70;;
13240;SDS011;6687;47.790;7.322;2023-04-21T14:44:25;1.15;;;0.80;;
13240;SDS011;6687;47.790;7.322;2023-04-21T14:46:52;0.60;;;0.60;;
13240;SDS011;6687;47.790;7.322;2023-04-21T14:49:19;1.20;;;1.10;;
13240;SDS011;6687;47.790;7.322;2023-04-21T14:51:45;0.80;;;0.70;;
13240;SDS011;6687;47.790;7.322;2023-04-21T14:54:13;0.70;;;0.70;;
13240;SDS011;6687;47.790;7.322;2023-04-21T14:56:40;1.10;;;0.70;;
13240;SDS011;6687;47.790;7.322;2023-04-21T14:59:08;0.55;;;0.55;;
13240;SDS011;6687;47.790;7.322;2023-04-21T15:01:35;1.13;;;1.02;;
13240;SDS011;6687;47.790;7.322;2023-04-21T15:04:02;0.77;;;0.77;;
13240;SDS011;6687;47.790;7.322;2023-04-21T15:06:28;0.90;;;0.90;;
13240;SDS011;6687;47.790;7.322;2023-04-21T15:08:55;0.82;;;0.80;;
13240;SDS011;6687;47.790;7.322;2023-04-21T15:11:22;1.45;;;1.20;;
13240;SDS011;6687;47.790;7.322;2023-04-21T15:13:49;1.10;;;1.00;;
13240;SDS011;6687;47.790;7.322;2023-04-21T15:16:17;0.65;;;0.60;;
13240;SDS011;6687;47.790;7.322;2023-04-21T15:18:44;0.88;;;0.88;;
13240;SDS011;6687;47.790;7.322;2023-04-21T15:21:11;0.65;;;0.52;;
13240;SDS011;6687;47.790;7.322;2023-04-21T15:23:37;1.15;;;0.95;;
13240;SDS011;6687;47.790;7.322;2023-04-21T15:26:04;1.20;;;0.90;;
13240;SDS011;6687;47.790;7.322;2023-04-21T15:28:31;0.77;;;0.75;;
13240;SDS011;6687;47.790;7.322;2023-04-21T15:30:59;2.75;;;1.55;;
13240;SDS011;6687;47.790;7.322;2023-04-21T15:33:27;2.63;;;1.23;;
13240;SDS011;6687;47.790;7.322;2023-04-21T15:35:54;2.15;;;1.45;;
13240;SDS011;6687;47.790;7.322;2023-04-21T15:38:21;1.02;;;1.00;;
13240;SDS011;6687;47.790;7.322;2023-04-21T15:40:47;0.95;;;0.70;;
13240;SDS011;6687;47.790;7.322;2023-04-21T15:43:14;0.80;;;0.80;;
13240;SDS011;6687;47.790;7.322;2023-04-21T15:45:41;0.75;;;0.75;;
13240;SDS011;6687;47.790;7.322;2023-04-21T15:48:08;0.93;;;0.93;;
13240;SDS011;6687;47.790;7.322;2023-04-21T15:50:37;1.48;;;1.35;;
13240;SDS011;6687;47.790;7.322;2023-04-21T15:53:04;1.98;;;1.33;;
13240;SDS011;6687;47.790;7.322;2023-04-21T15:55:31;1.00;;;1.00;;
13240;SDS011;6687;47.790;7.322;2023-04-21T15:57:58;1.08;;;1.00;;
13240;SDS011;6687;47.790;7.322;2023-04-21T16:00:25;1.10;;;1.00;;
13240;SDS011;6687;47.790;7.322;2023-04-21T16:02:53;0.75;;;0.73;;
13240;SDS011;6687;47.790;7.322;2023-04-21T16:05:20;0.73;;;0.73;;
13240;SDS011;6687;47.790;7.322;2023-04-21T16:07:48;1.13;;;0.98;;
13240;SDS011;6687;47.790;7.322;2023-04-21T16:10:15;1.05;;;1.05;;
13240;SDS011;6687;47.790;7.322;2023-04-21T16:12:42;0.60;;;0.43;;
13240;SDS011;6687;47.790;7.322;2023-04-21T16:15:10;1.10;;;0.70;;
13240;SDS011;6687;47.790;7.322;2023-04-21T16:17:38;0.60;;;0.38;;
13240;SDS011;6687;47.790;7.322;2023-04-21T16:20:05;0.90;;;0.60;;
13240;SDS011;6687;47.790;7.322;2023-04-21T16:22:32;1.10;;;1.00;;
13240;SDS011;6687;47.790;7.322;2023-04-21T16:25:01;0.88;;;0.77;;
13240;SDS011;6687;47.790;7.322;2023-04-21T16:27:28;0.57;;;0.57;;
13240;SDS011;6687;47.790;7.322;2023-04-21T16:29:54;0.90;;;0.90;;
13240;SDS011;6687;47.790;7.322;2023-04-21T16:32:21;1.55;;;0.90;;
13240;SDS011;6687;47.790;7.322;2023-04-21T16:34:48;0.80;;;0.80;;
13240;SDS011;6687;47.790;7.322;2023-04-21T16:37:14;0.90;;;0.85;;
13240;SDS011;6687;47.790;7.322;2023-04-21T16:39:41;1.52;;;0.80;;
13240;SDS011;6687;47.790;7.322;2023-04-21T16:42:09;1.10;;;1.10;;
13240;SDS011;6687;47.790;7.322;2023-04-21T16:44:36;0.75;;;0.75;;
13240;SDS011;6687;47.790;7.322;2023-04-21T16:47:03;0.60;;;0.55;;
13240;SDS011;6687;47.790;7.322;2023-04-21T16:49:29;0.80;;;0.80;;
13240;SDS011;6687;47.790;7.322;2023-04-21T16:51:56;0.65;;;0.65;;
13240;SDS011;6687;47.790;7.322;2023-04-21T16:54:23;0.93;;;0.60;;
13240;SDS011;6687;47.790;7.322;2023-04-21T16:56:49;0.43;;;0.43;;
13240;SDS011;6687;47.790;7.322;2023-04-21T16:59:18;0.65;;;0.60;;
13240;SDS011;6687;47.790;7.322;2023-04-21T17:01:45;0.50;;;0.50;;
13240;SDS011;6687;47.790;7.322;2023-04-21T17:04:12;0.60;;;0.55;;
13240;SDS011;6687;47.790;7.322;2023-04-21T17:06:39;1.23;;;1.13;;
13240;SDS011;6687;47.790;7.322;2023-04-21T17:09:06;0.70;;;0.70;;
13240;SDS011;6687;47.790;7.322;2023-04-21T17:11:33;0.43;;;0.43;;
13240;SDS011;6687;47.790;7.322;2023-04-21T17:13:59;0.77;;;0.70;;
13240;SDS011;6687;47.790;7.322;2023-04-21T17:16:27;0.82;;;0.82;;
13240;SDS011;6687;47.790;7.322;2023-04-21T17:18:56;0.60;;;0.60;;
13240;SDS011;6687;47.790;7.322;2023-04-21T17:21:22;1.70;;;1.52;;
13240;SDS011;6687;47.790;7.322;2023-04-21T17:23:49;1.40;;;1.30;;
13240;SDS011;6687;47.790;7.322;2023-04-21T17:26:16;3.13;;;2.20;;
13240;SDS011;6687;47.790;7.322;2023-04-21T17:28:42;2.10;;;1.85;;
13240;SDS011;6687;47.790;7.322;2023-04-21T17:31:09;2.90;;;1.60;;
13240;SDS011;6687;47.790;7.322;2023-04-21T17:33:38;2.58;;;1.30;;
13240;SDS011;6687;47.790;7.322;2023-04-21T17:36:05;1.50;;;1.08;;
13240;SDS011;6687;47.790;7.322;2023-04-21T17:38:32;1.45;;;1.17;;
13240;SDS011;6687;47.790;7.322;2023-04-21T17:40:58;1.42;;;1.30;;
13240;SDS011;6687;47.790;7.322;2023-04-21T17:43:27;1.90;;;1.38;;
13240;SDS011;6687;47.790;7.322;2023-04-21T17:45:53;1.75;;;1.17;;
13240;SDS011;6687;47.790;7.322;2023-04-21T17:48:20;2.53;;;1.20;;
13240;SDS011;6687;47.790;7.322;2023-04-21T17:50:48;2.15;;;1.50;;
13240;SDS011;6687;47.790;7.322;2023-04-21T17:53:15;3.13;;;2.35;;
13240;SDS011;6687;47.790;7.322;2023-04-21T17:55:42;3.72;;;2.55;;
13240;SDS011;6687;47.790;7.322;2023-04-21T17:58:08;2.50;;;2.10;;
13240;SDS011;6687;47.790;7.322;2023-04-21T18:00:35;4.22;;;2.65;;
13240;SDS011;6687;47.790;7.322;2023-04-21T18:03:02;2.47;;;1.60;;
13240;SDS011;6687;47.790;7.322;2023-04-21T18:05:29;1.27;;;1.17;;
13240;SDS011;6687;47.790;7.322;2023-04-21T18:07:57;1.27;;;1.10;;
13240;SDS011;6687;47.790;7.322;2023-04-21T18:10:24;1.65;;;1.10;;
13240;SDS011;6687;47.790;7.322;2023-04-21T18:12:51;2.60;;;1.40;;
13240;SDS011;6687;47.790;7.322;2023-04-21T18:15:18;1.20;;;1.10;;
13240;SDS011;6687;47.790;7.322;2023-04-21T18:17:45;0.40;;;0.40;;
13240;SDS011;6687;47.790;7.322;2023-04-21T18:20:11;0.80;;;0.57;;
13240;SDS011;6687;47.790;7.322;2023-04-21T18:22:39;0.52;;;0.52;;
13240;SDS011;6687;47.790;7.322;2023-04-21T18:25:09;0.73;;;0.73;;
13240;SDS011;6687;47.790;7.322;2023-04-21T18:27:36;0.57;;;0.57;;
13240;SDS011;6687;47.790;7.322;2023-04-21T18:30:03;0.60;;;0.60;;
13240;SDS011;6687;47.790;7.322;2023-04-21T18:32:31;0.90;;;0.90;;
13240;SDS011;6687;47.790;7.322;2023-04-21T18:34:58;0.55;;;0.55;;
13240;SDS011;6687;47.790;7.322;2023-04-21T18:37:26;0.80;;;0.80;;
13240;SDS011;6687;47.790;7.322;2023-04-21T18:39:52;0.88;;;0.88;;
13240;SDS011;6687;47.790;7.322;2023-04-21T18:42:20;0.90;;;0.90;;
13240;SDS011;6687;47.790;7.322;2023-04-21T18:44:47;1.60;;;0.75;;
13240;SDS011;6687;47.790;7.322;2023-04-21T18:47:14;1.35;;;0.70;;
13240;SDS011;6687;47.790;7.322;2023-04-21T18:49:40;0.65;;;0.65;;
13240;SDS011;6687;47.790;7.322;2023-04-21T18:52:07;0.57;;;0.57;;
13240;SDS011;6687;47.790;7.322;2023-04-21T18:54:34;0.70;;;0.68;;
13240;SDS011;6687;47.790;7.322;2023-04-21T18:57:01;0.70;;;0.60;;
13240;SDS011;6687;47.790;7.322;2023-04-21T18:59:29;0.77;;;0.77;;
13240;SDS011;6687;47.790;7.322;2023-04-21T19:01:56;0.95;;;0.93;;
13240;SDS011;6687;47.790;7.322;2023-04-21T19:04:24;0.43;;;0.38;;
13240;SDS011;6687;47.790;7.322;2023-04-21T19:06:50;0.40;;;0.40;;
13240;SDS011;6687;47.790;7.322;2023-04-21T19:09:17;0.95;;;0.88;;
13240;SDS011;6687;47.790;7.322;2023-04-21T19:11:44;1.00;;;0.80;;
13240;SDS011;6687;47.790;7.322;2023-04-21T19:14:11;1.48;;;1.10;;
13240;SDS011;6687;47.790;7.322;2023-04-21T19:16:39;1.33;;;1.23;;
13240;SDS011;6687;47.790;7.322;2023-04-21T19:19:06;1.40;;;1.30;;
13240;SDS011;6687;47.790;7.322;2023-04-21T19:21:33;1.13;;;1.13;;
13240;SDS011;6687;47.790;7.322;2023-04-21T19:24:00;1.30;;;1.20;;
13240;SDS011;6687;47.790;7.322;2023-04-21T19:26:27;1.50;;;1.30;;
13240;SDS011;6687;47.790;7.322;2023-04-21T19:28:53;1.33;;;0.93;;
13240;SDS011;6687;47.790;7.322;2023-04-21T19:31:20;3.42;;;1.27;;
13240;SDS011;6687;47.790;7.322;2023-04-21T19:33:49;1.48;;;1.10;;
13240;SDS011;6687;47.790;7.322;2023-04-21T19:36:16;2.55;;;1.40;;
13240;SDS011;6687;47.790;7.322;2023-04-21T19:38:43;1.80;;;1.52;;
13240;SDS011;6687;47.790;7.322;2023-04-21T19:41:11;1.55;;;1.45;;
13240;SDS011;6687;47.790;7.322;2023-04-21T19:43:38;1.20;;;1.00;;
13240;SDS011;6687;47.790;7.322;2023-04-21T19:46:04;2.00;;;1.70;;
13240;SDS011;6687;47.790;7.322;2023-04-21T19:48:31;1.23;;;1.15;;
13240;SDS011;6687;47.790;7.322;2023-04-21T19:51:00;1.27;;;1.17;;
13240;SDS011;6687;47.790;7.322;2023-04-21T19:53:26;1.42;;;1.33;;
13240;SDS011;6687;47.790;7.322;2023-04-21T19:55:53;1.20;;;1.08;;
13240;SDS011;6687;47.790;7.322;2023-04-21T19:58:20;1.92;;;1.73;;
13240;SDS011;6687;47.790;7.322;2023-04-21T20:00:47;1.13;;;1.10;;
13240;SDS011;6687;47.790;7.322;2023-04-21T20:03:13;0.98;;;0.98;;
13240;SDS011;6687;47.790;7.322;2023-04-21T20:05:40;0.90;;;0.90;;
13240;SDS011;6687;47.790;7.322;2023-04-21T20:08:09;1.30;;;0.93;;
13240;SDS011;6687;47.790;7.322;2023-04-21T20:10:37;2.00;;;1.15;;
13240;SDS011;6687;47.790;7.322;2023-04-21T20:13:08;1.10;;;1.10;;
13240;SDS011;6687;47.790;7.322;2023-04-21T20:15:35;4.75;;;1.60;;
13240;SDS011;6687;47.790;7.322;2023-04-21T20:18:03;1.50;;;1.40;;
13240;SDS011;6687;47.790;7.322;2023-04-21T20:20:30;2.05;;;1.75;;
13240;SDS011;6687;47.790;7.322;2023-04-21T20:22:57;1.50;;;1.40;;
13240;SDS011;6687;47.790;7.322;2023-04-21T20:25:26;1.75;;;1.10;;
13240;SDS011;6687;47.790;7.322;2023-04-21T20:27:53;1.00;;;1.00;;
13240;SDS011;6687;47.790;7.322;2023-04-21T20:30:20;1.58;;;1.45;;